sensor_id;sensor_type;location;lat;lon;timestamp;P1;durP1;ratioP1;P2;durP2;ratioP2
67076;SDS011;53991;46.364;17.008;2022-08-21T00:00:26;4.20;;;1.63;;
67076;SDS011;53991;46.364;17.008;2022-08-21T00:03:29;3.30;;;1.75;;
67076;SDS011;53991;46.364;17.008;2022-08-21T00:06:31;3.25;;;1.60;;
67076;SDS011;53991;46.364;17.008;2022-08-21T00:09:34;3.20;;;1.70;;
67076;SDS011;53991;46.364;17.008;2022-08-21T00:12:36;2.38;;;1.50;;
67076;SDS011;53991;46.364;17.008;2022-08-21T00:15:39;5.35;;;1.52;;
67076;SDS011;53991;46.364;17.008;2022-08-21T00:18:42;3.47;;;1.75;;
67076;SDS011;53991;46.364;17.008;2022-08-21T00:21:45;2.28;;;1.60;;
67076;SDS011;53991;46.364;17.008;2022-08-21T00:24:47;3.17;;;1.90;;
67076;SDS011;53991;46.364;17.008;2022-08-21T00:27:49;2.30;;;1.95;;
67076;SDS011;53991;46.364;17.008;2022-08-21T00:30:52;2.15;;;1.92;;
67076;SDS011;53991;46.364;17.008;2022-08-21T00:37:01;1.88;;;1.60;;
67076;SDS011;53991;46.364;17.008;2022-08-21T00:40:06;2.30;;;1.65;;
67076;SDS011;53991;46.364;17.008;2022-08-21T00:43:12;2.67;;;1.58;;
67076;SDS011;53991;46.364;17.008;2022-08-21T00:46:16;2.17;;;1.92;;
67076;SDS011;53991;46.364;17.008;2022-08-21T00:49:19;3.05;;;1.50;;
67076;SDS011;53991;46.364;17.008;2022-08-21T00:52:22;1.90;;;1.58;;
67076;SDS011;53991;46.364;17.008;2022-08-21T00:55:28;10.85;;;2.10;;
67076;SDS011;53991;46.364;17.008;2022-08-21T00:58:33;3.72;;;2.00;;
67076;SDS011;53991;46.364;17.008;2022-08-21T01:01:38;2.95;;;1.75;;
67076;SDS011;53991;46.364;17.008;2022-08-21T01:04:40;5.03;;;2.42;;
67076;SDS011;53991;46.364;17.008;2022-08-21T01:07:42;5.32;;;2.15;;
67076;SDS011;53991;46.364;17.008;2022-08-21T01:10:45;3.75;;;2.08;;
67076;SDS011;53991;46.364;17.008;2022-08-21T01:13:51;2.63;;;1.88;;
67076;SDS011;53991;46.364;17.008;2022-08-21T01:16:54;3.78;;;1.90;;
67076;SDS011;53991;46.364;17.008;2022-08-21T01:19:57;5.20;;;2.33;;
67076;SDS011;53991;46.364;17.008;2022-08-21T01:23:00;6.93;;;2.47;;
67076;SDS011;53991;46.364;17.008;2022-08-21T01:26:03;3.45;;;2.20;;
67076;SDS011;53991;46.364;17.008;2022-08-21T01:32:32;4.63;;;2.30;;
67076;SDS011;53991;46.364;17.008;2022-08-21T01:38:36;2.67;;;1.77;;
67076;SDS011;53991;46.364;17.008;2022-08-21T01:41:38;3.05;;;2.00;;
67076;SDS011;53991;46.364;17.008;2022-08-21T01:44:40;4.38;;;2.03;;
67076;SDS011;53991;46.364;17.008;2022-08-21T01:50:46;5.68;;;2.10;;
67076;SDS011;53991;46.364;17.008;2022-08-21T01:53:53;2.17;;;1.98;;
67076;SDS011;53991;46.364;17.008;2022-08-21T01:56:55;2.53;;;1.67;;
67076;SDS011;53991;46.364;17.008;2022-08-21T01:59:57;5.05;;;2.50;;
67076;SDS011;53991;46.364;17.008;2022-08-21T02:06:03;5.05;;;2.03;;
67076;SDS011;53991;46.364;17.008;2022-08-21T02:09:06;3.83;;;2.08;;
67076;SDS011;53991;46.364;17.008;2022-08-21T02:12:10;3.63;;;2.05;;
67076;SDS011;53991;46.364;17.008;2022-08-21T02:15:12;2.05;;;1.67;;
67076;SDS011;53991;46.364;17.008;2022-08-21T02:18:14;2.30;;;1.60;;
67076;SDS011;53991;46.364;17.008;2022-08-21T02:21:18;3.97;;;2.40;;
67076;SDS011;53991;46.364;17.008;2022-08-21T02:24:20;6.47;;;2.03;;
67076;SDS011;53991;46.364;17.008;2022-08-21T02:27:23;3.47;;;1.85;;
67076;SDS011;53991;46.364;17.008;2022-08-21T02:30:29;2.22;;;2.00;;
67076;SDS011;53991;46.364;17.008;2022-08-21T02:33:34;4.07;;;2.50;;
67076;SDS011;53991;46.364;17.008;2022-08-21T02:36:36;3.65;;;2.60;;
67076;SDS011;53991;46.364;17.008;2022-08-21T02:39:38;7.07;;;2.83;;
67076;SDS011;53991;46.364;17.008;2022-08-21T02:42:40;3.83;;;2.60;;
67076;SDS011;53991;46.364;17.008;2022-08-21T02:48:46;7.00;;;2.72;;
67076;SDS011;53991;46.364;17.008;2022-08-21T02:51:48;10.20;;;3.40;;
67076;SDS011;53991;46.364;17.008;2022-08-21T02:54:50;6.20;;;3.00;;
67076;SDS011;53991;46.364;17.008;2022-08-21T03:00:55;4.43;;;2.60;;
67076;SDS011;53991;46.364;17.008;2022-08-21T03:07:00;4.50;;;2.78;;
67076;SDS011;53991;46.364;17.008;2022-08-21T03:10:04;5.68;;;2.90;;
67076;SDS011;53991;46.364;17.008;2022-08-21T03:13:07;4.85;;;2.30;;
67076;SDS011;53991;46.364;17.008;2022-08-21T03:16:09;2.70;;;2.28;;
67076;SDS011;53991;46.364;17.008;2022-08-21T03:19:11;6.32;;;2.53;;
67076;SDS011;53991;46.364;17.008;2022-08-21T03:22:13;5.78;;;2.40;;
67076;SDS011;53991;46.364;17.008;2022-08-21T03:28:20;6.32;;;2.47;;
67076;SDS011;53991;46.364;17.008;2022-08-21T03:31:23;5.88;;;3.28;;
67076;SDS011;53991;46.364;17.008;2022-08-21T03:34:26;3.97;;;2.20;;
67076;SDS011;53991;46.364;17.008;2022-08-21T03:37:28;4.78;;;2.78;;
67076;SDS011;53991;46.364;17.008;2022-08-21T03:43:33;6.73;;;3.87;;
67076;SDS011;53991;46.364;17.008;2022-08-21T03:46:35;5.82;;;2.55;;
67076;SDS011;53991;46.364;17.008;2022-08-21T03:49:38;7.43;;;2.65;;
67076;SDS011;53991;46.364;17.008;2022-08-21T03:52:40;3.05;;;2.25;;
67076;SDS011;53991;46.364;17.008;2022-08-21T03:58:46;5.05;;;2.05;;
67076;SDS011;53991;46.364;17.008;2022-08-21T04:04:58;2.97;;;2.03;;
67076;SDS011;53991;46.364;17.008;2022-08-21T04:11:05;2.58;;;2.22;;
67076;SDS011;53991;46.364;17.008;2022-08-21T04:14:07;4.03;;;2.35;;
67076;SDS011;53991;46.364;17.008;2022-08-21T04:17:09;4.13;;;2.15;;
67076;SDS011;53991;46.364;17.008;2022-08-21T04:23:14;4.33;;;2.40;;
67076;SDS011;53991;46.364;17.008;2022-08-21T04:26:25;2.60;;;2.40;;
67076;SDS011;53991;46.364;17.008;2022-08-21T04:29:27;6.90;;;2.20;;
67076;SDS011;53991;46.364;17.008;2022-08-21T04:32:30;5.25;;;2.38;;
67076;SDS011;53991;46.364;17.008;2022-08-21T04:35:32;5.20;;;2.70;;
67076;SDS011;53991;46.364;17.008;2022-08-21T04:38:34;3.05;;;2.75;;
67076;SDS011;53991;46.364;17.008;2022-08-21T04:41:38;4.22;;;2.47;;
67076;SDS011;53991;46.364;17.008;2022-08-21T04:47:43;2.47;;;1.87;;
67076;SDS011;53991;46.364;17.008;2022-08-21T04:54:20;5.10;;;2.78;;
67076;SDS011;53991;46.364;17.008;2022-08-21T04:57:24;3.55;;;2.63;;
67076;SDS011;53991;46.364;17.008;2022-08-21T05:00:46;5.57;;;2.60;;
67076;SDS011;53991;46.364;17.008;2022-08-21T05:03:50;5.20;;;2.83;;
67076;SDS011;53991;46.364;17.008;2022-08-21T05:06:56;4.10;;;3.40;;
67076;SDS011;53991;46.364;17.008;2022-08-21T05:09:59;2.88;;;2.53;;
67076;SDS011;53991;46.364;17.008;2022-08-21T05:13:02;6.57;;;2.72;;
67076;SDS011;53991;46.364;17.008;2022-08-21T05:16:05;3.13;;;2.55;;
67076;SDS011;53991;46.364;17.008;2022-08-21T05:19:07;3.17;;;2.78;;
67076;SDS011;53991;46.364;17.008;2022-08-21T05:22:10;7.35;;;4.45;;
67076;SDS011;53991;46.364;17.008;2022-08-21T05:25:12;10.60;;;3.22;;
67076;SDS011;53991;46.364;17.008;2022-08-21T05:28:17;2.67;;;2.47;;
67076;SDS011;53991;46.364;17.008;2022-08-21T05:31:20;2.53;;;2.28;;
67076;SDS011;53991;46.364;17.008;2022-08-21T05:37:24;2.40;;;2.10;;
67076;SDS011;53991;46.364;17.008;2022-08-21T05:40:27;5.68;;;2.75;;
67076;SDS011;53991;46.364;17.008;2022-08-21T05:46:31;3.57;;;1.93;;
67076;SDS011;53991;46.364;17.008;2022-08-21T05:52:36;2.20;;;1.92;;
67076;SDS011;53991;46.364;17.008;2022-08-21T05:58:46;3.15;;;1.65;;
67076;SDS011;53991;46.364;17.008;2022-08-21T06:01:48;3.92;;;1.80;;
67076;SDS011;53991;46.364;17.008;2022-08-21T06:04:51;9.20;;;1.95;;
67076;SDS011;53991;46.364;17.008;2022-08-21T06:07:53;3.58;;;1.88;;
67076;SDS011;53991;46.364;17.008;2022-08-21T06:10:56;2.20;;;1.40;;
67076;SDS011;53991;46.364;17.008;2022-08-21T06:14:00;5.20;;;1.58;;
67076;SDS011;53991;46.364;17.008;2022-08-21T06:17:04;3.53;;;3.08;;
67076;SDS011;53991;46.364;17.008;2022-08-21T06:20:11;3.47;;;1.30;;
67076;SDS011;53991;46.364;17.008;2022-08-21T06:23:13;1.55;;;1.38;;
67076;SDS011;53991;46.364;17.008;2022-08-21T06:26:16;2.03;;;1.30;;
67076;SDS011;53991;46.364;17.008;2022-08-21T06:29:19;0.80;;;0.80;;
67076;SDS011;53991;46.364;17.008;2022-08-21T06:32:21;0.63;;;0.63;;
67076;SDS011;53991;46.364;17.008;2022-08-21T06:35:24;3.05;;;1.17;;
67076;SDS011;53991;46.364;17.008;2022-08-21T06:38:26;2.40;;;1.65;;
67076;SDS011;53991;46.364;17.008;2022-08-21T06:41:29;0.98;;;0.70;;
67076;SDS011;53991;46.364;17.008;2022-08-21T06:44:39;2.85;;;1.10;;
67076;SDS011;53991;46.364;17.008;2022-08-21T06:47:41;3.67;;;3.33;;
67076;SDS011;53991;46.364;17.008;2022-08-21T06:50:43;2.08;;;1.23;;
67076;SDS011;53991;46.364;17.008;2022-08-21T06:53:46;1.17;;;1.02;;
67076;SDS011;53991;46.364;17.008;2022-08-21T06:56:49;1.88;;;1.48;;
67076;SDS011;53991;46.364;17.008;2022-08-21T06:59:51;3.72;;;1.45;;
67076;SDS011;53991;46.364;17.008;2022-08-21T07:02:54;2.05;;;1.95;;
67076;SDS011;53991;46.364;17.008;2022-08-21T07:05:56;3.67;;;2.90;;
67076;SDS011;53991;46.364;17.008;2022-08-21T07:08:59;5.00;;;4.50;;
67076;SDS011;53991;46.364;17.008;2022-08-21T07:12:02;1.05;;;0.95;;
67076;SDS011;53991;46.364;17.008;2022-08-21T07:15:04;1.05;;;0.70;;
67076;SDS011;53991;46.364;17.008;2022-08-21T07:18:07;0.60;;;0.60;;
67076;SDS011;53991;46.364;17.008;2022-08-21T07:21:10;0.98;;;0.70;;
67076;SDS011;53991;46.364;17.008;2022-08-21T07:24:12;0.75;;;0.65;;
67076;SDS011;53991;46.364;17.008;2022-08-21T07:27:15;0.57;;;0.43;;
67076;SDS011;53991;46.364;17.008;2022-08-21T07:33:20;0.80;;;0.80;;
67076;SDS011;53991;46.364;17.008;2022-08-21T07:36:22;1.10;;;0.63;;
67076;SDS011;53991;46.364;17.008;2022-08-21T07:39:25;2.20;;;0.93;;
67076;SDS011;53991;46.364;17.008;2022-08-21T07:42:27;1.63;;;0.70;;
67076;SDS011;53991;46.364;17.008;2022-08-21T07:45:30;7.43;;;1.38;;
67076;SDS011;53991;46.364;17.008;2022-08-21T07:48:32;0.70;;;0.60;;
67076;SDS011;53991;46.364;17.008;2022-08-21T07:51:35;1.77;;;0.90;;
67076;SDS011;53991;46.364;17.008;2022-08-21T07:57:39;0.70;;;0.70;;
67076;SDS011;53991;46.364;17.008;2022-08-21T08:00:42;1.65;;;0.73;;
67076;SDS011;53991;46.364;17.008;2022-08-21T08:03:45;0.60;;;0.60;;
67076;SDS011;53991;46.364;17.008;2022-08-21T08:06:47;0.90;;;0.77;;
67076;SDS011;53991;46.364;17.008;2022-08-21T08:09:50;0.63;;;0.60;;
67076;SDS011;53991;46.364;17.008;2022-08-21T08:12:52;0.93;;;0.50;;
67076;SDS011;53991;46.364;17.008;2022-08-21T08:15:54;1.75;;;0.77;;
67076;SDS011;53991;46.364;17.008;2022-08-21T08:18:57;0.77;;;0.57;;
67076;SDS011;53991;46.364;17.008;2022-08-21T08:21:59;2.95;;;0.70;;
67076;SDS011;53991;46.364;17.008;2022-08-21T08:25:02;2.08;;;0.70;;
67076;SDS011;53991;46.364;17.008;2022-08-21T08:28:10;0.43;;;0.32;;
67076;SDS011;53991;46.364;17.008;2022-08-21T08:31:18;2.60;;;0.60;;
67076;SDS011;53991;46.364;17.008;2022-08-21T08:34:20;0.75;;;0.75;;
67076;SDS011;53991;46.364;17.008;2022-08-21T08:43:53;2.35;;;0.50;;
67076;SDS011;53991;46.364;17.008;2022-08-21T08:46:58;2.67;;;0.85;;
67076;SDS011;53991;46.364;17.008;2022-08-21T08:50:03;0.93;;;0.63;;
67076;SDS011;53991;46.364;17.008;2022-08-21T08:53:17;0.60;;;0.60;;
67076;SDS011;53991;46.364;17.008;2022-08-21T08:56:28;0.40;;;0.38;;
67076;SDS011;53991;46.364;17.008;2022-08-21T08:59:36;0.93;;;0.60;;
67076;SDS011;53991;46.364;17.008;2022-08-21T09:02:45;0.60;;;0.50;;
67076;SDS011;53991;46.364;17.008;2022-08-21T09:05:49;4.22;;;0.70;;
67076;SDS011;53991;46.364;17.008;2022-08-21T09:15:46;0.65;;;0.60;;
67076;SDS011;53991;46.364;17.008;2022-08-21T09:25:20;0.50;;;0.40;;
67076;SDS011;53991;46.364;17.008;2022-08-21T09:28:24;0.63;;;0.40;;
67076;SDS011;53991;46.364;17.008;2022-08-21T09:34:30;1.27;;;0.52;;
67076;SDS011;53991;46.364;17.008;2022-08-21T09:37:33;0.88;;;0.38;;
67076;SDS011;53991;46.364;17.008;2022-08-21T09:40:57;2.00;;;0.60;;
67076;SDS011;53991;46.364;17.008;2022-08-21T09:44:02;1.33;;;0.40;;
67076;SDS011;53991;46.364;17.008;2022-08-21T09:47:06;3.13;;;0.30;;
67076;SDS011;53991;46.364;17.008;2022-08-21T09:50:11;0.45;;;0.40;;
67076;SDS011;53991;46.364;17.008;2022-08-21T09:53:20;1.15;;;0.68;;
67076;SDS011;53991;46.364;17.008;2022-08-21T09:56:27;2.42;;;0.30;;
67076;SDS011;53991;46.364;17.008;2022-08-21T09:59:34;0.50;;;0.43;;
67076;SDS011;53991;46.364;17.008;2022-08-21T10:02:37;1.88;;;0.30;;
67076;SDS011;53991;46.364;17.008;2022-08-21T10:05:49;0.98;;;0.40;;
67076;SDS011;53991;46.364;17.008;2022-08-21T10:09:07;1.00;;;0.50;;
67076;SDS011;53991;46.364;17.008;2022-08-21T10:12:23;1.30;;;0.30;;
67076;SDS011;53991;46.364;17.008;2022-08-21T10:28:39;0.30;;;0.30;;
67076;SDS011;53991;46.364;17.008;2022-08-21T10:35:14;0.60;;;0.50;;
67076;SDS011;53991;46.364;17.008;2022-08-21T10:42:21;1.20;;;0.55;;
67076;SDS011;53991;46.364;17.008;2022-08-21T10:59:00;0.68;;;0.65;;
67076;SDS011;53991;46.364;17.008;2022-08-21T11:02:37;0.80;;;0.80;;
67076;SDS011;53991;46.364;17.008;2022-08-21T11:05:50;1.38;;;0.73;;
67076;SDS011;53991;46.364;17.008;2022-08-21T11:08:55;0.88;;;0.88;;
67076;SDS011;53991;46.364;17.008;2022-08-21T11:12:12;1.50;;;1.10;;
67076;SDS011;53991;46.364;17.008;2022-08-21T11:15:45;1.00;;;0.88;;
67076;SDS011;53991;46.364;17.008;2022-08-21T11:19:00;1.23;;;1.02;;
67076;SDS011;53991;46.364;17.008;2022-08-21T11:25:25;2.50;;;0.80;;
67076;SDS011;53991;46.364;17.008;2022-08-21T11:28:57;1.02;;;1.00;;
67076;SDS011;53991;46.364;17.008;2022-08-21T11:35:32;1.02;;;0.93;;
67076;SDS011;53991;46.364;17.008;2022-08-21T11:39:01;1.02;;;1.00;;
67076;SDS011;53991;46.364;17.008;2022-08-21T11:45:39;1.20;;;0.95;;
67076;SDS011;53991;46.364;17.008;2022-08-21T11:48:48;3.97;;;1.00;;
67076;SDS011;53991;46.364;17.008;2022-08-21T11:52:12;1.10;;;0.93;;
67076;SDS011;53991;46.364;17.008;2022-08-21T11:55:26;2.40;;;1.30;;
67076;SDS011;53991;46.364;17.008;2022-08-21T11:58:45;1.60;;;1.30;;
67076;SDS011;53991;46.364;17.008;2022-08-21T12:01:53;1.10;;;1.05;;
67076;SDS011;53991;46.364;17.008;2022-08-21T12:04:59;1.60;;;1.50;;
67076;SDS011;53991;46.364;17.008;2022-08-21T12:14:15;1.17;;;0.85;;
67076;SDS011;53991;46.364;17.008;2022-08-21T12:17:23;1.60;;;0.93;;
67076;SDS011;53991;46.364;17.008;2022-08-21T12:20:44;2.45;;;0.80;;
67076;SDS011;53991;46.364;17.008;2022-08-21T12:30:23;1.15;;;1.05;;
67076;SDS011;53991;46.364;17.008;2022-08-21T12:33:39;0.95;;;0.68;;
67076;SDS011;53991;46.364;17.008;2022-08-21T12:36:43;1.70;;;0.80;;
67076;SDS011;53991;46.364;17.008;2022-08-21T12:39:57;2.75;;;0.98;;
67076;SDS011;53991;46.364;17.008;2022-08-21T12:43:02;1.60;;;1.13;;
67076;SDS011;53991;46.364;17.008;2022-08-21T12:46:06;1.45;;;0.73;;
67076;SDS011;53991;46.364;17.008;2022-08-21T12:49:13;2.17;;;0.80;;
67076;SDS011;53991;46.364;17.008;2022-08-21T12:52:33;1.58;;;0.73;;
67076;SDS011;53991;46.364;17.008;2022-08-21T12:55:41;1.83;;;0.75;;
67076;SDS011;53991;46.364;17.008;2022-08-21T12:58:45;1.48;;;0.80;;
67076;SDS011;53991;46.364;17.008;2022-08-21T13:01:52;0.93;;;0.70;;
67076;SDS011;53991;46.364;17.008;2022-08-21T13:04:55;1.67;;;0.75;;
67076;SDS011;53991;46.364;17.008;2022-08-21T13:07:58;3.15;;;0.60;;
67076;SDS011;53991;46.364;17.008;2022-08-21T13:11:05;0.60;;;0.60;;
67076;SDS011;53991;46.364;17.008;2022-08-21T13:17:29;3.58;;;0.90;;
67076;SDS011;53991;46.364;17.008;2022-08-21T13:20:38;1.17;;;0.77;;
67076;SDS011;53991;46.364;17.008;2022-08-21T13:23:41;0.80;;;0.80;;
67076;SDS011;53991;46.364;17.008;2022-08-21T13:26:46;0.55;;;0.50;;
67076;SDS011;53991;46.364;17.008;2022-08-21T13:30:00;10.60;;;0.73;;
67076;SDS011;53991;46.364;17.008;2022-08-21T13:33:07;0.68;;;0.65;;
67076;SDS011;53991;46.364;17.008;2022-08-21T13:36:15;1.52;;;0.70;;
67076;SDS011;53991;46.364;17.008;2022-08-21T13:39:19;0.93;;;0.85;;
67076;SDS011;53991;46.364;17.008;2022-08-21T13:42:22;0.70;;;0.70;;
67076;SDS011;53991;46.364;17.008;2022-08-21T13:45:26;0.75;;;0.75;;
67076;SDS011;53991;46.364;17.008;2022-08-21T13:48:33;2.33;;;1.00;;
67076;SDS011;53991;46.364;17.008;2022-08-21T13:51:36;0.70;;;0.70;;
67076;SDS011;53991;46.364;17.008;2022-08-21T13:54:40;0.98;;;0.77;;
67076;SDS011;53991;46.364;17.008;2022-08-21T13:57:43;1.00;;;0.68;;
67076;SDS011;53991;46.364;17.008;2022-08-21T14:00:46;0.50;;;0.50;;
67076;SDS011;53991;46.364;17.008;2022-08-21T14:03:53;1.85;;;0.98;;
67076;SDS011;53991;46.364;17.008;2022-08-21T14:06:58;1.83;;;0.60;;
67076;SDS011;53991;46.364;17.008;2022-08-21T14:10:01;0.60;;;0.57;;
67076;SDS011;53991;46.364;17.008;2022-08-21T14:16:59;2.85;;;1.10;;
67076;SDS011;53991;46.364;17.008;2022-08-21T14:20:28;0.63;;;0.40;;
67076;SDS011;53991;46.364;17.008;2022-08-21T14:23:35;0.97;;;0.40;;
67076;SDS011;53991;46.364;17.008;2022-08-21T14:26:49;0.30;;;0.30;;
67076;SDS011;53991;46.364;17.008;2022-08-21T14:29:57;0.45;;;0.35;;
67076;SDS011;53991;46.364;17.008;2022-08-21T14:33:03;1.75;;;0.40;;
67076;SDS011;53991;46.364;17.008;2022-08-21T14:36:06;0.30;;;0.30;;
67076;SDS011;53991;46.364;17.008;2022-08-21T14:39:09;1.35;;;0.30;;
67076;SDS011;53991;46.364;17.008;2022-08-21T14:42:11;0.40;;;0.10;;
67076;SDS011;53991;46.364;17.008;2022-08-21T14:45:19;1.08;;;0.43;;
67076;SDS011;53991;46.364;17.008;2022-08-21T14:48:28;0.22;;;0.20;;
67076;SDS011;53991;46.364;17.008;2022-08-21T14:51:30;0.17;;;0.17;;
67076;SDS011;53991;46.364;17.008;2022-08-21T14:54:32;0.57;;;0.30;;
67076;SDS011;53991;46.364;17.008;2022-08-21T14:57:35;0.60;;;0.35;;
67076;SDS011;53991;46.364;17.008;2022-08-21T15:06:41;1.95;;;0.45;;
67076;SDS011;53991;46.364;17.008;2022-08-21T15:09:44;0.25;;;0.20;;
67076;SDS011;53991;46.364;17.008;2022-08-21T15:12:46;1.25;;;0.60;;
67076;SDS011;53991;46.364;17.008;2022-08-21T15:15:49;0.28;;;0.20;;
67076;SDS011;53991;46.364;17.008;2022-08-21T15:18:53;0.52;;;0.40;;
67076;SDS011;53991;46.364;17.008;2022-08-21T15:21:55;1.02;;;0.40;;
67076;SDS011;53991;46.364;17.008;2022-08-21T15:24:58;3.25;;;0.70;;
67076;SDS011;53991;46.364;17.008;2022-08-21T15:28:01;0.10;;;0.10;;
67076;SDS011;53991;46.364;17.008;2022-08-21T15:31:05;1.60;;;0.55;;
67076;SDS011;53991;46.364;17.008;2022-08-21T15:34:07;0.65;;;0.40;;
67076;SDS011;53991;46.364;17.008;2022-08-21T15:37:10;1.88;;;0.22;;
67076;SDS011;53991;46.364;17.008;2022-08-21T15:40:12;1.85;;;0.28;;
67076;SDS011;53991;46.364;17.008;2022-08-21T15:43:25;3.50;;;0.60;;
67076;SDS011;53991;46.364;17.008;2022-08-21T15:46:31;0.52;;;0.20;;
67076;SDS011;53991;46.364;17.008;2022-08-21T15:49:33;0.40;;;0.20;;
67076;SDS011;53991;46.364;17.008;2022-08-21T15:52:36;0.85;;;0.20;;
67076;SDS011;53991;46.364;17.008;2022-08-21T15:58:40;1.07;;;0.20;;
67076;SDS011;53991;46.364;17.008;2022-08-21T16:01:43;0.45;;;0.20;;
67076;SDS011;53991;46.364;17.008;2022-08-21T16:04:46;1.02;;;0.40;;
67076;SDS011;53991;46.364;17.008;2022-08-21T16:07:49;1.48;;;0.20;;
67076;SDS011;53991;46.364;17.008;2022-08-21T16:10:52;2.17;;;0.50;;
67076;SDS011;53991;46.364;17.008;2022-08-21T16:13:54;1.85;;;1.25;;
67076;SDS011;53991;46.364;17.008;2022-08-21T16:16:57;0.80;;;0.30;;
67076;SDS011;53991;46.364;17.008;2022-08-21T16:20:01;0.82;;;0.63;;
67076;SDS011;53991;46.364;17.008;2022-08-21T16:23:04;4.47;;;0.40;;
67076;SDS011;53991;46.364;17.008;2022-08-21T16:26:07;1.25;;;0.47;;
67076;SDS011;53991;46.364;17.008;2022-08-21T16:29:18;3.85;;;0.40;;
67076;SDS011;53991;46.364;17.008;2022-08-21T16:32:21;1.65;;;0.40;;
67076;SDS011;53991;46.364;17.008;2022-08-21T16:35:29;1.00;;;0.28;;
67076;SDS011;53991;46.364;17.008;2022-08-21T16:38:32;2.17;;;0.30;;
67076;SDS011;53991;46.364;17.008;2022-08-21T16:41:37;3.33;;;0.52;;
67076;SDS011;53991;46.364;17.008;2022-08-21T16:44:41;0.90;;;0.43;;
67076;SDS011;53991;46.364;17.008;2022-08-21T16:47:49;0.50;;;0.50;;
67076;SDS011;53991;46.364;17.008;2022-08-21T16:50:51;0.75;;;0.50;;
67076;SDS011;53991;46.364;17.008;2022-08-21T16:56:56;1.27;;;0.30;;
67076;SDS011;53991;46.364;17.008;2022-08-21T16:59:59;1.70;;;0.40;;
67076;SDS011;53991;46.364;17.008;2022-08-21T17:03:02;1.67;;;0.47;;
67076;SDS011;53991;46.364;17.008;2022-08-21T17:06:05;2.78;;;1.25;;
67076;SDS011;53991;46.364;17.008;2022-08-21T17:09:08;1.27;;;0.63;;
67076;SDS011;53991;46.364;17.008;2022-08-21T17:12:11;2.47;;;0.43;;
67076;SDS011;53991;46.364;17.008;2022-08-21T17:15:17;1.48;;;0.50;;
67076;SDS011;53991;46.364;17.008;2022-08-21T17:18:22;0.65;;;0.40;;
67076;SDS011;53991;46.364;17.008;2022-08-21T17:21:25;1.00;;;0.50;;
67076;SDS011;53991;46.364;17.008;2022-08-21T17:27:30;1.70;;;0.40;;
67076;SDS011;53991;46.364;17.008;2022-08-21T17:33:36;1.33;;;0.60;;
67076;SDS011;53991;46.364;17.008;2022-08-21T17:36:42;0.70;;;0.70;;
67076;SDS011;53991;46.364;17.008;2022-08-21T17:42:47;1.00;;;0.70;;
67076;SDS011;53991;46.364;17.008;2022-08-21T17:45:50;1.42;;;0.77;;
67076;SDS011;53991;46.364;17.008;2022-08-21T17:48:52;0.60;;;0.50;;
67076;SDS011;53991;46.364;17.008;2022-08-21T17:51:55;0.77;;;0.60;;
67076;SDS011;53991;46.364;17.008;2022-08-21T17:57:59;2.50;;;1.00;;
67076;SDS011;53991;46.364;17.008;2022-08-21T18:01:02;2.92;;;0.95;;
67076;SDS011;53991;46.364;17.008;2022-08-21T18:04:05;2.05;;;0.70;;
67076;SDS011;53991;46.364;17.008;2022-08-21T18:07:08;1.85;;;0.88;;
67076;SDS011;53991;46.364;17.008;2022-08-21T18:10:16;2.17;;;1.20;;
67076;SDS011;53991;46.364;17.008;2022-08-21T18:13:23;1.35;;;1.13;;
67076;SDS011;53991;46.364;17.008;2022-08-21T18:16:28;2.25;;;1.45;;
67076;SDS011;53991;46.364;17.008;2022-08-21T18:19:31;1.08;;;0.88;;
67076;SDS011;53991;46.364;17.008;2022-08-21T18:22:42;2.00;;;1.30;;
67076;SDS011;53991;46.364;17.008;2022-08-21T18:28:49;3.42;;;1.67;;
67076;SDS011;53991;46.364;17.008;2022-08-21T18:35:14;4.45;;;1.15;;
67076;SDS011;53991;46.364;17.008;2022-08-21T18:38:37;3.42;;;1.55;;
67076;SDS011;53991;46.364;17.008;2022-08-21T18:41:59;1.88;;;1.20;;
67076;SDS011;53991;46.364;17.008;2022-08-21T18:45:24;2.13;;;1.73;;
67076;SDS011;53991;46.364;17.008;2022-08-21T18:51:29;2.08;;;1.67;;
67076;SDS011;53991;46.364;17.008;2022-08-21T18:54:31;4.60;;;1.80;;
67076;SDS011;53991;46.364;17.008;2022-08-21T18:57:37;2.60;;;2.13;;
67076;SDS011;53991;46.364;17.008;2022-08-21T19:00:43;2.13;;;1.92;;
67076;SDS011;53991;46.364;17.008;2022-08-21T19:03:50;2.90;;;2.50;;
67076;SDS011;53991;46.364;17.008;2022-08-21T19:06:53;2.88;;;2.40;;
67076;SDS011;53991;46.364;17.008;2022-08-21T19:09:56;3.22;;;1.98;;
67076;SDS011;53991;46.364;17.008;2022-08-21T19:16:23;4.68;;;2.08;;
67076;SDS011;53991;46.364;17.008;2022-08-21T19:19:26;3.53;;;2.20;;
67076;SDS011;53991;46.364;17.008;2022-08-21T19:22:31;2.92;;;1.88;;
67076;SDS011;53991;46.364;17.008;2022-08-21T19:25:34;2.35;;;1.90;;
67076;SDS011;53991;46.364;17.008;2022-08-21T19:28:41;3.53;;;2.10;;
67076;SDS011;53991;46.364;17.008;2022-08-21T19:31:45;4.90;;;2.78;;
67076;SDS011;53991;46.364;17.008;2022-08-21T19:34:48;3.10;;;2.20;;
67076;SDS011;53991;46.364;17.008;2022-08-21T19:37:51;3.38;;;2.10;;
67076;SDS011;53991;46.364;17.008;2022-08-21T19:40:54;2.47;;;2.28;;
67076;SDS011;53991;46.364;17.008;2022-08-21T19:43:58;2.13;;;1.92;;
67076;SDS011;53991;46.364;17.008;2022-08-21T19:47:03;2.90;;;2.60;;
67076;SDS011;53991;46.364;17.008;2022-08-21T19:50:19;4.18;;;2.60;;
67076;SDS011;53991;46.364;17.008;2022-08-21T19:53:22;3.35;;;2.42;;
67076;SDS011;53991;46.364;17.008;2022-08-21T19:56:25;5.32;;;2.67;;
67076;SDS011;53991;46.364;17.008;2022-08-21T19:59:29;2.20;;;2.00;;
67076;SDS011;53991;46.364;17.008;2022-08-21T20:02:32;3.40;;;2.40;;
67076;SDS011;53991;46.364;17.008;2022-08-21T20:05:34;2.42;;;2.22;;
67076;SDS011;53991;46.364;17.008;2022-08-21T20:08:40;2.85;;;2.05;;
67076;SDS011;53991;46.364;17.008;2022-08-21T20:11:48;3.47;;;2.10;;
67076;SDS011;53991;46.364;17.008;2022-08-21T20:14:55;3.17;;;2.25;;
67076;SDS011;53991;46.364;17.008;2022-08-21T20:17:58;4.38;;;2.10;;
67076;SDS011;53991;46.364;17.008;2022-08-21T20:21:02;2.55;;;2.28;;
67076;SDS011;53991;46.364;17.008;2022-08-21T20:24:05;3.22;;;2.00;;
67076;SDS011;53991;46.364;17.008;2022-08-21T20:27:11;2.47;;;2.20;;
67076;SDS011;53991;46.364;17.008;2022-08-21T20:30:17;1.88;;;1.77;;
67076;SDS011;53991;46.364;17.008;2022-08-21T20:33:23;4.68;;;2.03;;
67076;SDS011;53991;46.364;17.008;2022-08-21T20:36:27;2.08;;;1.88;;
67076;SDS011;53991;46.364;17.008;2022-08-21T20:42:31;2.33;;;2.13;;
67076;SDS011;53991;46.364;17.008;2022-08-21T20:45:34;3.72;;;2.88;;
67076;SDS011;53991;46.364;17.008;2022-08-21T20:51:50;5.28;;;2.60;;
67076;SDS011;53991;46.364;17.008;2022-08-21T20:54:55;3.72;;;2.28;;
67076;SDS011;53991;46.364;17.008;2022-08-21T20:58:05;3.35;;;2.75;;
67076;SDS011;53991;46.364;17.008;2022-08-21T21:01:30;3.38;;;2.60;;
67076;SDS011;53991;46.364;17.008;2022-08-21T21:08:18;2.97;;;2.67;;
67076;SDS011;53991;46.364;17.008;2022-08-21T21:11:38;3.35;;;2.38;;
67076;SDS011;53991;46.364;17.008;2022-08-21T21:14:44;2.17;;;1.98;;
67076;SDS011;53991;46.364;17.008;2022-08-21T21:21:07;2.15;;;1.55;;
67076;SDS011;53991;46.364;17.008;2022-08-21T21:24:18;2.88;;;2.05;;
67076;SDS011;53991;46.364;17.008;2022-08-21T21:27:35;3.17;;;2.00;;
67076;SDS011;53991;46.364;17.008;2022-08-21T21:30:43;3.13;;;1.80;;
67076;SDS011;53991;46.364;17.008;2022-08-21T21:33:55;3.60;;;2.47;;
67076;SDS011;53991;46.364;17.008;2022-08-21T21:37:01;4.60;;;2.78;;
67076;SDS011;53991;46.364;17.008;2022-08-21T21:59:06;3.13;;;2.83;;
67076;SDS011;53991;46.364;17.008;2022-08-21T22:12:44;3.10;;;2.80;;